»·PEaware :: N211AC KIFP-KSBD

N211AC :: KIFP-KSBD

FLIGHT INFORMATION

Flight Status: Arrived
Operator: Privately registered:
United States
More flights under this callsign
Pilot: Christopher T. (26121)
Aircraft: BEECH AIRCRAFT BONANZA
(BE35)
More flights by this aircraft type
Origin: KIFP Laughlin/Bullhead Intl
United States
Destination: KSBD San Bernardino Intl
United States
More flights between these airports :: More routes between these airports
Route: +
File this flight plan on PilotEdge
Remarks:
Altitude:
(Current/Filed)
0ft
Speed:
(Current/Filed)
0kts
Departed: 12-Oct-19 07:54 PM
Arrived: 12-Oct-19 08:54 PM
Distance/Time
Traveled:
146nm/1:00
Distance/Time
To Go:
Arrived

Flight Plot

Page will automatically refresh every two minutes.

Flight plan parsing failed; only flown route is shown


Map Options




Map Legend


Flown Route
Filed Route
Departure Airport
Arrival Airport
Navaid (VOR, NDB)
Fix

Horizontal Profiles

Position Reports

Time Latitude Longitude Heading Altitude Ground
Speed
12-Oct-19 19:53 35.095776 -114.730123 232 7934ft 112kts
12-Oct-19 19:53 35.081171 -114.756977 242 8912ft 115kts
12-Oct-19 19:54 35.066486 -114.789901 238 9736ft 106kts
12-Oct-19 19:56 35.049856 -114.826707 239 10360ft 106kts
12-Oct-19 19:57 35.033845 -114.861976 239 10511ft 136kts
12-Oct-19 19:57 35.017466 -114.897794 239 10513ft 151kts
12-Oct-19 19:58 34.994229 -114.947346 239 10504ft 169kts
12-Oct-19 19:59 34.971043 -114.997001 239 10517ft 165kts
12-Oct-19 20:00 34.947075 -115.048193 239 10509ft 170kts
12-Oct-19 20:01 34.922791 -115.099995 239 10513ft 171kts
12-Oct-19 20:02 34.898500 -115.152055 240 10511ft 171kts
12-Oct-19 20:03 34.874156 -115.203945 239 10516ft 171kts
12-Oct-19 20:04 34.849896 -115.255788 239 10521ft 171kts
12-Oct-19 20:05 34.821952 -115.304226 214 10526ft 170kts
12-Oct-19 20:06 34.778449 -115.329790 201 10528ft 169kts
12-Oct-19 20:07 34.735434 -115.348966 199 10540ft 160kts
12-Oct-19 20:08 34.693212 -115.367290 199 10546ft 159kts
12-Oct-19 20:09 34.651829 -115.385259 199 10552ft 157kts
12-Oct-19 20:10 34.607182 -115.404594 199 10543ft 168kts
12-Oct-19 20:11 34.564710 -115.423044 200 10561ft 158kts
12-Oct-19 20:12 34.521170 -115.441762 200 10562ft 164kts
12-Oct-19 20:13 34.479160 -115.460059 199 10568ft 158kts
12-Oct-19 20:14 34.435790 -115.478711 199 10571ft 165kts
12-Oct-19 20:15 34.391268 -115.497839 200 10569ft 166kts
12-Oct-19 20:16 34.349113 -115.516016 197 10577ft 158kts
12-Oct-19 20:17 34.310231 -115.545615 220 10576ft 165kts
12-Oct-19 20:18 34.277445 -115.582379 223 10570ft 159kts
12-Oct-19 20:19 34.245326 -115.618807 222 10563ft 157kts
12-Oct-19 20:20 34.213075 -115.655480 222 10569ft 159kts
12-Oct-19 20:21 34.190177 -115.705041 241 10561ft 168kts
12-Oct-19 20:22 34.169482 -115.753695 241 10570ft 159kts
12-Oct-19 20:23 34.149479 -115.801146 241 10574ft 158kts
12-Oct-19 20:24 34.128733 -115.850156 241 10579ft 163kts
12-Oct-19 20:25 34.110072 -115.898901 259 10588ft 160kts
12-Oct-19 20:26 34.109282 -115.952847 267 10590ft 160kts
12-Oct-19 20:27 34.108505 -116.006703 266 10600ft 160kts
12-Oct-19 20:28 34.107514 -116.061372 267 10593ft 169kts
12-Oct-19 20:29 34.106680 -116.116725 266 10614ft 162kts
12-Oct-19 20:30 34.105743 -116.173414 266 10605ft 168kts
12-Oct-19 20:31 34.104878 -116.229838 267 10602ft 165kts
12-Oct-19 20:32 34.103979 -116.284562 266 10601ft 162kts
12-Oct-19 20:33 34.099695 -116.340846 252 10594ft 167kts
12-Oct-19 20:34 34.088794 -116.395417 254 10593ft 165kts
12-Oct-19 20:35 34.077702 -116.451101 254 10596ft 168kts
12-Oct-19 20:36 34.066053 -116.508406 254 10574ft 171kts
12-Oct-19 20:37 34.054584 -116.564468 254 10595ft 179kts
12-Oct-19 20:38 34.043360 -116.623408 263 10592ft 173kts
12-Oct-19 20:39 34.039493 -116.679165 263 10615ft 163kts
12-Oct-19 20:40 34.035806 -116.733137 263 10638ft 162kts
12-Oct-19 20:41 34.032215 -116.790061 269 10612ft 170kts
12-Oct-19 20:42 34.034118 -116.847158 270 10616ft 167kts
12-Oct-19 20:43 34.040936 -116.903037 281 10036ft 170kts
12-Oct-19 20:44 34.054376 -116.958648 294 9174ft 169kts
12-Oct-19 20:45 34.074918 -117.011283 287 7592ft 165kts
12-Oct-19 20:46 34.088328 -117.065211 284 6240ft 170kts
12-Oct-19 20:47 34.097405 -117.119656 270 4675ft 161kts
12-Oct-19 20:48 34.098496 -117.169267 265 3259ft 113kts
12-Oct-19 20:49 34.094291 -117.203190 251 2351ft 92kts
12-Oct-19 20:50 34.083747 -117.232262 240 2125ft 88kts
12-Oct-19 20:51 34.074802 -117.260765 260 1957ft 88kts
12-Oct-19 20:52 34.086750 -117.263629 71 1369ft 78kts
12-Oct-19 20:53 34.092825 -117.243511 73 1122ft 25kts
12-Oct-19 20:54 34.094723 -117.242148 359 1122ft 0kts
12-Oct-19 20:55 34.094826 -117.242127 10 1122ft 5kts
12-Oct-19 20:56 34.095652 -117.240292 68 1122ft 6kts
12-Oct-19 20:57 34.097282 -117.234787 72 1122ft 15kts
12-Oct-19 20:58 34.098634 -117.230071 69 1122ft 15kts
12-Oct-19 20:59 34.100360 -117.226360 45 1122ft 9kts

Navigation Log

Ident Type
Flight plan parsing failed, navigation log unavailable